createdAt,value
2023-04-18T00:03:24.241Z,4.50
2023-04-18T00:08:28.629Z,4.95
2023-04-18T00:13:31.859Z,4.40
2023-04-18T00:18:37.175Z,4.13
2023-04-18T00:23:40.536Z,5.55
2023-04-18T00:28:43.796Z,5.22
2023-04-18T00:33:48.361Z,5.10
2023-04-18T00:38:51.464Z,4.07
2023-04-18T00:43:55.197Z,4.25
2023-04-18T00:48:59.883Z,4.25
2023-04-18T00:54:04.162Z,4.25
2023-04-18T00:59:08.488Z,3.90
2023-04-18T01:04:13.308Z,4.05
2023-04-18T01:09:17.182Z,4.25
2023-04-18T01:14:21.429Z,4.30
2023-04-18T01:19:25.928Z,4.22
2023-04-18T01:24:32.058Z,3.83
2023-04-18T01:29:35.885Z,4.10
2023-04-18T01:34:40.390Z,4.07
2023-04-18T01:39:45.266Z,3.33
2023-04-18T01:44:48.409Z,3.10
2023-04-18T01:49:51.553Z,3.70
2023-04-18T01:54:56.234Z,3.17
2023-04-18T01:59:59.387Z,2.95
2023-04-18T02:05:02.696Z,2.65
2023-04-18T02:10:08.559Z,2.63
2023-04-18T02:15:12.588Z,2.55
2023-04-18T02:20:16.061Z,1.93
2023-04-18T02:25:23.858Z,2.30
2023-04-18T02:30:27.327Z,2.13
2023-04-18T02:35:31.115Z,1.85
2023-04-18T02:40:35.786Z,1.80
2023-04-18T02:50:42.060Z,1.70
2023-04-18T02:55:47.062Z,1.50
2023-04-18T03:00:50.784Z,1.35
2023-04-18T03:05:54.004Z,1.30
2023-04-18T03:10:58.844Z,1.30
2023-04-18T03:16:02.671Z,1.35
2023-04-18T03:21:07.425Z,1.37
2023-04-18T03:31:17.376Z,1.40
2023-04-18T03:36:25.404Z,1.10
2023-04-18T03:41:30.055Z,1.10
2023-04-18T03:51:44.032Z,1.00
2023-04-18T03:56:48.686Z,1.05
2023-04-18T04:01:51.989Z,1.10
2023-04-18T04:06:55.415Z,1.33
2023-04-18T04:12:00.132Z,1.00
2023-04-18T04:22:06.264Z,0.63
2023-04-18T04:27:12.791Z,0.70
2023-04-18T04:32:17.113Z,0.98
2023-04-18T04:37:20.444Z,1.00
2023-04-18T04:42:26.512Z,0.90
2023-04-18T04:47:30.125Z,1.00
2023-04-18T04:52:34.044Z,0.70
2023-04-18T04:57:39.094Z,1.50
2023-04-18T05:02:42.542Z,0.90
2023-04-18T05:07:45.889Z,1.02
2023-04-18T05:12:50.563Z,0.98
2023-04-18T05:17:53.938Z,0.88
2023-04-18T05:22:57.292Z,0.90
2023-04-18T05:28:04.882Z,0.47
2023-04-18T05:33:08.334Z,0.70
2023-04-18T05:38:11.639Z,1.00
2023-04-18T05:43:16.284Z,1.00
2023-04-18T05:48:19.652Z,0.85
2023-04-18T05:53:22.980Z,0.70
2023-04-18T05:58:28.950Z,0.75
2023-04-18T06:03:32.512Z,0.70
2023-04-18T06:08:35.967Z,0.80
2023-04-18T06:13:41.115Z,0.90
2023-04-18T06:18:44.395Z,0.80
2023-04-18T06:23:47.592Z,0.80
2023-04-18T06:28:52.186Z,0.73
2023-04-18T06:33:55.414Z,0.65
2023-04-18T06:38:58.629Z,0.80
2023-04-18T06:44:04.532Z,0.95
2023-04-18T06:49:08.154Z,0.60
2023-04-18T06:54:11.727Z,0.70
2023-04-18T06:59:16.398Z,0.70
2023-04-18T07:09:23.781Z,0.82
2023-04-18T07:14:28.714Z,0.73
2023-04-18T07:19:31.943Z,0.63
2023-04-18T07:24:35.188Z,0.57
2023-04-18T07:29:39.884Z,0.52
2023-04-18T07:34:43.154Z,0.60
2023-04-18T07:39:46.321Z,0.90
2023-04-18T07:44:51.213Z,0.85
2023-04-18T07:49:54.466Z,0.60
2023-04-18T07:54:57.702Z,1.08
2023-04-18T08:00:02.452Z,0.90
2023-04-18T08:05:06.320Z,0.90
2023-04-18T08:10:10.542Z,0.93
2023-04-18T08:15:15.186Z,0.80
2023-04-18T08:20:18.390Z,0.85
2023-04-18T08:25:21.621Z,1.20
2023-04-18T08:30:26.375Z,0.80
2023-04-18T08:35:29.851Z,0.70
2023-04-18T08:40:33.157Z,0.90
2023-04-18T08:45:38.776Z,0.90
2023-04-18T08:50:42.269Z,0.90
2023-04-18T08:55:47.876Z,0.90
2023-04-18T09:00:53.446Z,0.80
2023-04-18T09:06:08.954Z,0.70
2023-04-18T09:11:26.202Z,1.00
2023-04-18T09:16:47.430Z,0.90
2023-04-18T09:21:59.892Z,0.90
2023-04-18T09:27:04.550Z,0.90
2023-04-18T09:32:09.217Z,1.08
2023-04-18T09:37:13.955Z,0.90
2023-04-18T09:42:17.299Z,0.93
2023-04-18T09:47:21.997Z,0.80
2023-04-18T09:52:26.452Z,0.93
2023-04-18T09:57:31.721Z,1.10
2023-04-18T10:02:48.470Z,0.90
2023-04-18T10:07:52.198Z,0.98
2023-04-18T10:12:56.911Z,1.00
2023-04-18T10:18:05.620Z,0.93
2023-04-18T10:23:38.527Z,0.93
2023-04-18T10:28:53.695Z,0.82
2023-04-18T10:39:25.701Z,0.90
2023-04-18T10:44:28.980Z,1.00
2023-04-18T10:49:33.734Z,1.50
2023-04-18T10:54:40.037Z,1.05
2023-04-18T10:59:44.969Z,0.90
2023-04-18T11:04:52.374Z,1.30
2023-04-18T11:09:56.030Z,1.08
2023-04-18T11:14:59.802Z,0.98
2023-04-18T11:20:09.246Z,1.20
2023-04-18T11:25:13.134Z,1.10
2023-04-18T11:30:17.181Z,1.00
2023-04-18T11:35:21.847Z,1.13
2023-04-18T11:40:25.152Z,1.00
2023-04-18T11:45:28.697Z,1.20
2023-04-18T11:50:37.620Z,1.20
2023-04-18T11:55:41.242Z,0.90
2023-04-18T12:00:44.504Z,1.33
2023-04-18T12:05:49.416Z,1.15
2023-04-18T12:10:54.216Z,0.82
2023-04-18T12:15:57.490Z,1.02
2023-04-18T12:21:06.371Z,0.90
2023-04-18T12:26:13.667Z,0.82
2023-04-18T12:31:16.931Z,1.15
2023-04-18T12:36:23.790Z,1.27
2023-04-18T12:41:27.170Z,0.90
2023-04-18T12:46:30.652Z,0.83
2023-04-18T12:51:35.365Z,1.00
2023-04-18T12:56:38.622Z,1.00
2023-04-18T13:01:41.832Z,1.40
2023-04-18T13:06:46.513Z,1.20
2023-04-18T13:11:49.848Z,0.80
2023-04-18T13:16:53.160Z,1.20
2023-04-18T13:21:57.911Z,0.90
2023-04-18T13:27:02.611Z,0.80
2023-04-18T13:32:06.217Z,1.10
2023-04-18T13:37:11.277Z,0.88
2023-04-18T13:42:16.138Z,0.70
2023-04-18T13:47:20.729Z,1.17
2023-04-18T13:52:25.661Z,0.90
2023-04-18T13:57:32.378Z,0.90
2023-04-18T14:02:35.829Z,0.85
2023-04-18T14:07:40.757Z,0.85
2023-04-18T14:12:44.021Z,0.70
2023-04-18T14:17:47.267Z,1.00
2023-04-18T14:22:53.231Z,0.90
2023-04-18T14:28:08.095Z,0.90
2023-04-18T14:33:11.373Z,0.75
2023-04-18T14:38:16.155Z,1.10
2023-04-18T14:43:19.524Z,1.00
2023-04-18T14:48:22.883Z,1.02
2023-04-18T14:53:27.893Z,1.00
2023-04-18T14:58:31.111Z,0.90
2023-04-18T15:03:34.721Z,0.80
2023-04-18T15:18:45.609Z,1.00
2023-04-18T15:23:50.247Z,1.20
2023-04-18T15:28:55.165Z,1.05
2023-04-18T15:33:58.433Z,1.25
2023-04-18T15:39:04.612Z,1.20
2023-04-18T15:44:08.213Z,1.50
2023-04-18T15:49:11.459Z,1.80
2023-04-18T15:54:16.657Z,1.65
2023-04-18T15:59:20.025Z,2.00
2023-04-18T16:04:24.337Z,1.88
2023-04-18T16:09:28.983Z,2.05
2023-04-18T16:14:32.362Z,1.63
2023-04-18T16:19:38.400Z,1.88
2023-04-18T16:24:43.211Z,1.65
2023-04-18T16:29:47.443Z,1.60
2023-04-18T16:34:50.834Z,1.60
2023-04-18T16:39:55.506Z,1.67
2023-04-18T16:44:58.739Z,1.60
2023-04-18T16:50:02.130Z,1.80
2023-04-18T16:55:07.782Z,1.73
2023-04-18T17:00:13.795Z,1.58
2023-04-18T17:05:17.727Z,1.70
2023-04-18T17:15:25.624Z,1.70
2023-04-18T17:20:29.374Z,1.75
2023-04-18T17:25:34.019Z,1.80
2023-04-18T17:30:41.650Z,1.60
2023-04-18T17:35:44.906Z,1.80
2023-04-18T17:40:49.603Z,1.83
2023-04-18T17:45:52.843Z,1.95
2023-04-18T17:50:56.210Z,1.67
2023-04-18T17:56:00.951Z,1.50
2023-04-18T18:01:04.160Z,1.65
2023-04-18T18:06:07.724Z,1.73
2023-04-18T18:11:12.456Z,1.77
2023-04-18T18:16:15.784Z,1.70
2023-04-18T18:21:19.195Z,1.60
2023-04-18T18:26:23.848Z,1.80
2023-04-18T18:31:27.171Z,1.70
2023-04-18T18:36:30.601Z,1.90
2023-04-18T18:41:35.259Z,1.67
2023-04-18T18:46:38.539Z,2.20
2023-04-18T18:51:42.254Z,3.67
2023-04-18T18:56:46.940Z,3.92
2023-04-18T19:01:50.164Z,2.50
2023-04-18T19:06:53.772Z,2.42
2023-04-18T19:11:58.808Z,2.13
2023-04-18T19:17:02.043Z,2.25
2023-04-18T19:22:06.736Z,2.42
2023-04-18T19:27:11.428Z,2.47
2023-04-18T19:32:14.706Z,2.58
2023-04-18T19:37:17.867Z,2.90
2023-04-18T19:42:22.444Z,2.70
2023-04-18T19:47:26.148Z,3.25
2023-04-18T19:52:29.468Z,2.40
2023-04-18T19:57:39.221Z,2.30
2023-04-18T20:02:43.517Z,2.22
2023-04-18T20:07:46.855Z,2.47
2023-04-18T20:12:51.495Z,2.28
2023-04-18T20:17:54.843Z,2.28
2023-04-18T20:22:58.227Z,2.25
2023-04-18T20:28:03.202Z,2.70
2023-04-18T20:33:06.466Z,3.10
2023-04-18T20:38:11.328Z,3.05
2023-04-18T20:43:17.577Z,2.70
2023-04-18T20:48:21.187Z,2.70
2023-04-18T20:53:26.251Z,2.50
2023-04-18T20:58:31.217Z,2.28
2023-04-18T21:03:34.737Z,2.30
2023-04-18T21:08:39.552Z,2.40
2023-04-18T21:18:47.072Z,2.50
2023-04-18T21:23:50.332Z,2.33
2023-04-18T21:28:57.418Z,2.58
2023-04-18T21:34:02.072Z,2.17
2023-04-18T21:44:10.820Z,2.20
2023-04-18T21:49:14.042Z,2.13
2023-04-18T21:54:17.324Z,2.25
2023-04-18T21:59:22.003Z,2.50
2023-04-18T22:09:31.509Z,2.72
2023-04-18T22:14:36.254Z,2.78
2023-04-18T22:24:44.921Z,2.78
2023-04-18T22:29:50.910Z,2.70
2023-04-18T22:39:57.115Z,3.17
2023-04-18T22:45:01.901Z,3.10
2023-04-18T22:55:09.070Z,2.80
2023-04-18T23:00:14.930Z,3.37
2023-04-18T23:05:18.174Z,3.00
2023-04-18T23:10:21.490Z,3.55
2023-04-18T23:15:27.194Z,3.22
2023-04-18T23:20:30.623Z,3.28
2023-04-18T23:25:34.583Z,3.15
2023-04-18T23:30:39.269Z,3.20
2023-04-18T23:35:42.542Z,3.72
2023-04-18T23:40:45.760Z,4.10
2023-04-18T23:45:50.904Z,3.85
2023-04-18T23:50:54.722Z,4.28
2023-04-18T23:55:58.026Z,3.92
